Dades meteomassalio
Diari Summary for Gener 12, 2017 Units:  Metric    English   Both
« Previous Day
Next Day »
Diari Semanal Mensual Anual Personalitzat
  Maxima: Minima: Mijana:
Temperatura: -17.8 °C -14.1 °C -11.1 °C
Rosada: -17.8 °C -15.1 °C -13.6 °C
Humitat: Humidity % 53 % 75 %
Velocitat del vent: 0 km/h 0 km/h 6.9 km/h
Racha vent: 0 km/h - -
Vent:- - WSW
Pressio: 0 hPa 34442.4 hPa -
Pluja: 0 mm    
Historical Graphs
 
 
Tabular Data for Gener 12, 2017
Time Temperature Dew Point Pressure Wind Wind Speed Wind Gust Humidity Rainfall Rate (Hourly) solar Conditions
-17.8 °C -17.8 °C 0 hPa Calm     Humidity % 0 mm SolarRadiationWatts/m^2 W/m2 Conditions
00:02 -11.1 °C -13.2 °C 34726.8 hPa West 29.8 km/h 29.8 km/h 78 % 0 mm 0.0 W/m2 CLR
00:07 -11.1 °C -13.2 °C 34726.8 hPa West 29.8 km/h 29.8 km/h 78 % 0 mm 0.0 W/m2 CLR
00:12 -11.2 °C -13.2 °C 34726.8 hPa West 29.8 km/h 29.8 km/h 78 % 0 mm 0.0 W/m2 CLR
00:17 -11.2 °C -13.2 °C 34740.4 hPa WSW 15.6 km/h 17.5 km/h 79 % 0 mm 0.0 W/m2 CLR
00:22 -11.2 °C -13.2 °C 34740.4 hPa WSW 31.1 km/h 31.1 km/h 79 % 0 mm 0.0 W/m2 CLR
00:27 -11.2 °C -13.3 °C 34740.4 hPa WSW 12.9 km/h 12.9 km/h 78 % 0 mm 0.0 W/m2 CLR
00:32 -11.3 °C -13.3 °C 34726.8 hPa WSW 3.1 km/h 3.1 km/h 79 % 0 mm 0.0 W/m2 CLR
00:37 -11.3 °C -13.3 °C 34726.8 hPa WSW 9 km/h   79 % 0 mm 0.0 W/m2 CLR
00:42 -11.3 °C -13.2 °C 34740.4 hPa Calm     79 % 0 mm 0.0 W/m2 CLR
00:47 -11.3 °C -13.3 °C 34740.4 hPa Calm     79 % 0 mm 0.0 W/m2 CLR
00:52 -11.5 °C -13.4 °C 34726.8 hPa Calm     80 % 0 mm 0.0 W/m2 CLR
00:57 -11.6 °C -13.3 °C 34726.8 hPa SW 9 km/h 9 km/h 81 % 0 mm 0.0 W/m2 CLR
01:02 -11.6 °C -13.3 °C 34740.4 hPa Calm     81 % 0 mm 0.0 W/m2 CLR
01:07 -11.6 °C -13.4 °C 34726.8 hPa Calm     81 % 0 mm 0.0 W/m2 CLR
01:12 -11.6 °C -13.4 °C 34726.8 hPa Calm     81 % 0 mm 0.0 W/m2 CLR
01:17 -11.7 °C -13.4 °C 34726.8 hPa Calm     81 % 0 mm 0.0 W/m2 CLR
01:22 -11.7 °C -13.4 °C 34726.8 hPa Calm     81 % 0 mm 0.0 W/m2 CLR
01:27 -11.8 °C -13.5 °C 34726.8 hPa Calm     81 % 0 mm 0.0 W/m2 CLR
01:32 -11.7 °C -13.4 °C 34726.8 hPa WSW 9 km/h 9 km/h 81 % 0 mm 0.0 W/m2 CLR
01:37 -11.7 °C -13.4 °C 34726.8 hPa SW 9 km/h 9 km/h 81 % 0 mm 0.0 W/m2 CLR
01:42 -11.7 °C -13.4 °C 34726.8 hPa SW 12.9 km/h 12.9 km/h 81 % 0 mm 0.0 W/m2 CLR
01:47 -11.7 °C -13.5 °C 34726.8 hPa Calm     80 % 0 mm 0.0 W/m2 CLR
01:52 -11.7 °C -13.4 °C 34726.8 hPa SW 15 km/h 15 km/h 81 % 0 mm 0.0 W/m2 CLR
01:57 -11.7 °C -13.6 °C 34726.8 hPa SW 6 km/h 6 km/h 80 % 0 mm 0.0 W/m2 CLR
02:02 -11.8 °C -13.5 °C 34726.8 hPa Calm     81 % 0 mm 0.0 W/m2 CLR
02:07 -11.8 °C -13.6 °C 34726.8 hPa Calm     81 % 0 mm 0.0 W/m2 CLR
02:12 -11.9 °C -13.6 °C 34726.8 hPa Calm     81 % 0 mm 0.0 W/m2 CLR
02:17 -11.9 °C -13.6 °C 34726.8 hPa WSW 9 km/h 9 km/h 82 % 0 mm 0.0 W/m2 CLR
02:22 -11.8 °C -13.5 °C 34726.8 hPa West 15 km/h 15 km/h 81 % 0 mm 0.0 W/m2 CLR
02:27 -11.7 °C -13.5 °C 34726.8 hPa West 26.9 km/h 26.9 km/h 80 % 0 mm 0.0 W/m2 CLR
02:32 -11.6 °C -13.5 °C 34726.8 hPa West 3.1 km/h 3.1 km/h 80 % 0 mm 0.0 W/m2 CLR
02:37 -11.6 °C -13.4 °C 34740.4 hPa West 9 km/h 9 km/h 80 % 0 mm 0.0 W/m2 CLR
02:42 -11.6 °C -13.6 °C 34740.4 hPa West 26.9 km/h 26.9 km/h 79 % 0 mm 0.0 W/m2 CLR
02:47 -11.6 °C -13.5 °C 34740.4 hPa West 29.8 km/h 29.8 km/h 79 % 0 mm 0.0 W/m2 CLR
02:52 -11.6 °C -13.6 °C 34726.8 hPa WSW 29.8 km/h 29.8 km/h 79 % 0 mm 0.0 W/m2 CLR
02:57 -11.7 °C -13.6 °C 34726.8 hPa WSW 20.9 km/h 20.9 km/h 80 % 0 mm 0.0 W/m2 CLR
03:02 -11.8 °C -13.6 °C 34726.8 hPa WSW 7.7 km/h 7.7 km/h 80 % 0 mm 0.0 W/m2 CLR
03:07 -11.9 °C -13.7 °C 34726.8 hPa WSW 15 km/h 15 km/h 80 % 0 mm 0.0 W/m2 CLR
03:12 -12 °C -13.7 °C 34726.8 hPa WSW 9 km/h 9 km/h 81 % 0 mm 0.0 W/m2 CLR
03:17 -12.1 °C -13.8 °C 34726.8 hPa WSW 15 km/h 15 km/h 81 % 0 mm 0.0 W/m2 CLR
03:22 -12.1 °C -13.7 °C 34716.7 hPa WSW 15 km/h 15 km/h 82 % 0 mm 0.0 W/m2 CLR
03:27 -12.1 °C -13.7 °C 34716.7 hPa WSW 11.9 km/h 11.9 km/h 82 % 0 mm 0.0 W/m2 CLR
03:32 -12.2 °C -13.8 °C 34716.7 hPa Calm     82 % 0 mm 0.0 W/m2 CLR
03:37 -12.2 °C -13.8 °C 34726.8 hPa WSW 15 km/h 15 km/h 82 % 0 mm 0.0 W/m2 CLR
03:42 -12.3 °C -13.8 °C 34716.7 hPa WSW 11.9 km/h 11.9 km/h 83 % 0 mm 0.0 W/m2 CLR
03:47 -12.3 °C -13.8 °C 34726.8 hPa WSW 20.9 km/h 20.9 km/h 83 % 0 mm 0.0 W/m2 CLR
03:52 -12.3 °C -13.8 °C 34726.8 hPa WSW 11.9 km/h 11.9 km/h 83 % 0 mm 0.0 W/m2 CLR
03:57 -12.2 °C -13.8 °C 34726.8 hPa WSW 15 km/h 15 km/h 83 % 0 mm 0.0 W/m2 CLR
04:02 -12.2 °C -13.8 °C 34716.7 hPa WSW 17.9 km/h 17.9 km/h 82 % 0 mm 0.0 W/m2 CLR
04:07 -12.1 °C -13.7 °C 34716.7 hPa West 15 km/h 15 km/h 82 % 0 mm 0.0 W/m2 CLR
04:12 -12.1 °C -13.7 °C 34716.7 hPa West 17.9 km/h 17.9 km/h 82 % 0 mm 0.0 W/m2 CLR
04:17 -12 °C -13.7 °C 34703.1 hPa West 11.9 km/h 11.9 km/h 81 % 0 mm 0.0 W/m2 CLR
04:22 -12.1 °C -13.8 °C 34703.1 hPa West 6 km/h   81 % 0 mm 0.0 W/m2 CLR
04:27 -12.2 °C -13.9 °C 34716.7 hPa WSW 9 km/h 9 km/h 81 % 0 mm 0.0 W/m2 CLR
04:32 -12.5 °C -14.1 °C 34703.1 hPa WSW 9 km/h   82 % 0 mm 0.0 W/m2 CLR
04:37 -12.6 °C -14.1 °C 34703.1 hPa WSW 10.3 km/h 10.3 km/h 84 % 0 mm 0.0 W/m2 CLR
04:43 -12.6 °C -14 °C 34716.7 hPa WSW 9 km/h 9 km/h 84 % 0 mm 0.0 W/m2 CLR
04:48 -12.6 °C -13.9 °C 34703.1 hPa WSW 9 km/h 9 km/h 84 % 0 mm 0.0 W/m2 CLR
04:53 -12.4 °C -13.9 °C 34716.7 hPa WSW 9 km/h 9 km/h 84 % 0 mm 0.0 W/m2 CLR
04:58 -12.5 °C -13.9 °C 34703.1 hPa WSW 12.9 km/h 12.9 km/h 84 % 0 mm 0.0 W/m2 CLR
05:03 -12.4 °C -13.8 °C 34703.1 hPa WSW 17.9 km/h 17.9 km/h 84 % 0 mm 0.0 W/m2 CLR
05:08 -12.4 °C -13.9 °C 34703.1 hPa WSW 15 km/h 15 km/h 83 % 0 mm 0.0 W/m2 CLR
05:13 -12.4 °C -13.9 °C 34703.1 hPa WSW 17.9 km/h 17.9 km/h 83 % 0 mm 0.0 W/m2 CLR
05:18 -12.4 °C -13.9 °C 34703.1 hPa WSW 17.9 km/h 17.9 km/h 83 % 0 mm 0.0 W/m2 CLR
05:23 -12.3 °C -13.9 °C 34703.1 hPa WSW 11.9 km/h 11.9 km/h 83 % 0 mm 0.0 W/m2 CLR
05:28 -12.3 °C -13.9 °C 34703.1 hPa WSW 15 km/h 15 km/h 83 % 0 mm 0.0 W/m2 CLR
05:33 -12.3 °C -13.9 °C 34703.1 hPa WSW 15 km/h 15 km/h 83 % 0 mm 0.0 W/m2 CLR
05:38 -12.4 °C -13.9 °C 34703.1 hPa SW 11.9 km/h 11.9 km/h 83 % 0 mm 0.0 W/m2 CLR
05:43 -12.6 °C -14.1 °C 34693 hPa SW 9 km/h 9 km/h 84 % 0 mm 0.0 W/m2 CLR
05:48 -12.6 °C -13.9 °C 34693 hPa Calm     85 % 0 mm 0.0 W/m2 CLR
05:53 -12.5 °C -13.9 °C 34693 hPa WSW 9 km/h 9 km/h 84 % 0 mm 0.0 W/m2 CLR
05:58 -12.4 °C -13.9 °C 34693 hPa WSW 2.6 km/h   84 % 0 mm 0.0 W/m2 CLR
06:03 -12.4 °C -13.8 °C 34693 hPa WSW 12.9 km/h 12.9 km/h 84 % 0 mm 0.0 W/m2 CLR
06:08 -12.3 °C -13.8 °C 34693 hPa WSW 17.9 km/h 17.9 km/h 84 % 0 mm 0.0 W/m2 CLR
06:13 -12.3 °C -13.9 °C 34682.8 hPa West 12.9 km/h 12.9 km/h 83 % 0 mm 0.0 W/m2 CLR
06:18 -12.3 °C -13.8 °C 34682.8 hPa West 17.9 km/h 17.9 km/h 83 % 0 mm 0.0 W/m2 CLR
06:23 -12.3 °C -13.8 °C 34693 hPa WSW 15 km/h 15 km/h 83 % 0 mm 0.0 W/m2 CLR
06:28 -12.4 °C -14.1 °C 34682.8 hPa Calm     82 % 0 mm 0.0 W/m2 CLR
06:33 -12.7 °C -14.2 °C 34682.8 hPa Calm     83 % 0 mm 0.0 W/m2 CLR
06:38 -12.9 °C -14.3 °C 34693 hPa Calm     84 % 0 mm 0.0 W/m2 CLR
06:43 -12.9 °C -14.3 °C 34693 hPa Calm     85 % 0 mm 0.0 W/m2 CLR
06:48 -12.9 °C -14.3 °C 34693 hPa Calm     85 % 0 mm 0.0 W/m2 CLR
06:53 -13.2 °C -14.5 °C 34693 hPa Calm     85 % 0 mm 0.0 W/m2 CLR
06:58 -13.3 °C -14.5 °C 34693 hPa WSW 9 km/h 9 km/h 86 % 0 mm 0.0 W/m2 CLR
07:03 -13.1 °C -14.3 °C 34693 hPa Calm     87 % 0 mm 0.0 W/m2 CLR
07:08 -13.2 °C -14.5 °C 34693 hPa Calm     85 % 0 mm 0.0 W/m2 CLR
07:13 -13.2 °C -14.4 °C 34693 hPa SW 11.9 km/h 11.9 km/h 86 % 0 mm 0.0 W/m2 CLR
07:18 -13.2 °C -14.5 °C 34693 hPa Calm     86 % 0 mm 0.0 W/m2 CLR
07:23 -13.4 °C -14.7 °C 34693 hPa Calm     86 % 0 mm 0.0 W/m2 CLR
07:28 -13.6 °C -14.8 °C 34693 hPa Calm     86 % 0 mm 0.0 W/m2 CLR
07:33 -13.7 °C -14.8 °C 34693 hPa Calm     87 % 0 mm 0.0 W/m2 CLR
07:38 -13.7 °C -14.7 °C 34693 hPa Calm     88 % 0 mm 0.0 W/m2 CLR
07:43 -13.6 °C -14.6 °C 34693 hPa Calm     88 % 0 mm 0.0 W/m2 CLR
07:48 -13.4 °C -14.6 °C 34682.8 hPa SW 9 km/h 9 km/h 87 % 0 mm 0.0 W/m2 CLR
07:53 -13.6 °C -14.7 °C 34693 hPa SW 11.9 km/h 11.9 km/h 87 % 0 mm 0.0 W/m2 CLR
07:58 -13.4 °C -14.5 °C 34693 hPa Calm     88 % 0 mm 0.0 W/m2 CLR
08:03 -13.4 °C -14.7 °C 34693 hPa Calm     86 % 0 mm 0.0 W/m2 CLR
08:08 -13.7 °C -15 °C 34682.8 hPa Calm     85 % 0 mm 0.0 W/m2 CLR
08:13 -13.9 °C -15.1 °C 34682.8 hPa Calm     86 % 0 mm 0.0 W/m2 CLR
08:18 -14 °C -15.1 °C 34682.8 hPa Calm     87 % 0 mm 0.0 W/m2 CLR
08:23 -14.1 °C -15.1 °C 34682.8 hPa Calm     88 % 0 mm 5.0 W/m2 BKN
08:28 -14.1 °C -15.1 °C 34682.8 hPa Calm     88 % 0 mm 7.0 W/m2 BKN
08:33 -14.1 °C -15.1 °C 34682.8 hPa Calm     89 % 0 mm 9.0 W/m2 BKN
08:38 -14.1 °C -15.1 °C 34682.8 hPa Calm     89 % 0 mm 11.0 W/m2 BKN
08:43 -14.1 °C -15 °C 34682.8 hPa Calm     89 % 0 mm 12.0 W/m2 BKN
08:48 -14.1 °C -14.9 °C 34682.8 hPa Calm     90 % 0 mm 14.0 W/m2 BKN
08:53 -14 °C -14.9 °C 34682.8 hPa Calm     89 % 0 mm 16.0 W/m2 BKN
08:58 -13.9 °C -14.8 °C 34682.8 hPa Calm     89 % 0 mm 25.0 W/m2 BKN
09:03 -13.8 °C -14.7 °C 34682.8 hPa Calm     89 % 0 mm 37.0 W/m2 BKN
09:08 -13.6 °C -14.6 °C 34682.8 hPa Calm     88 % 0 mm 39.0 W/m2 BKN
09:13 -13.6 °C -14.7 °C 34682.8 hPa Calm     87 % 0 mm 53.0 W/m2 BKN
09:18 -13.4 °C -14.6 °C 34682.8 hPa Calm     87 % 0 mm 63.0 W/m2 BKN
09:23 -13.4 °C -14.7 °C 34682.8 hPa Calm     86 % 0 mm 69.0 W/m2 BKN
09:28 -13.4 °C -14.7 °C 34669.3 hPa Calm     85 % 0 mm 93.0 W/m2 BKN
09:33 -13.4 °C -14.7 °C 34669.3 hPa Calm     85 % 0 mm 60.0 W/m2 BKN
09:38 -13.3 °C -14.7 °C 34682.8 hPa Calm     85 % 0 mm 77.0 W/m2 BKN
09:43 -13.1 °C -14.3 °C 34669.3 hPa Calm     86 % 0 mm 102.0 W/m2 BKN
09:48 -12.9 °C -14.2 °C 34669.3 hPa Calm     85 % 0 mm 120.0 W/m2 BKN
09:53 -12.7 °C -14.3 °C 34669.3 hPa Calm     83 % 0 mm 116.0 W/m2 BKN
09:58 -12.7 °C -14.2 °C 34669.3 hPa Calm     83 % 0 mm 171.0 W/m2 BKN
10:03 -12.6 °C -14.1 °C 34669.3 hPa Calm     83 % 0 mm 105.0 W/m2 SCT
10:08 -12.4 °C -14.1 °C 34669.3 hPa Calm     82 % 0 mm 162.0 W/m2 BKN
10:13 -12.3 °C -14 °C 34659.1 hPa Calm     82 % 0 mm 171.0 W/m2 BKN
10:18 -12.3 °C -13.9 °C 34669.3 hPa Calm     82 % 0 mm 225.0 W/m2 SCT
10:23 -12.1 °C -13.8 °C 34669.3 hPa Calm     82 % 0 mm 239.0 W/m2 SCT
10:28 -11.9 °C -13.5 °C 34669.3 hPa Calm     82 % 0 mm 251.0 W/m2 SCT
10:33 -11.6 °C -13.5 °C 34669.3 hPa Calm     80 % 0 mm 264.0 W/m2 SCT
10:38 -11.4 °C -13.4 °C 34669.3 hPa Calm     79 % 0 mm 272.0 W/m2 SCT
10:43 -11.3 °C -13.4 °C 34669.3 hPa Calm     77 % 0 mm 283.0 W/m2 SCT
10:48 -11.2 °C -13.3 °C 34659.1 hPa Calm     77 % 0 mm 294.0 W/m2 SCT
10:53 -11 °C -13.2 °C 34659.1 hPa Calm     77 % 0 mm 304.0 W/m2 SCT
10:58 -10.8 °C -13.2 °C 34659.1 hPa Calm     75 % 0 mm 313.0 W/m2 SCT
11:03 -10.6 °C -13 °C 34659.1 hPa Calm     75 % 0 mm 320.0 W/m2 FEW
11:08 -10.6 °C -13.1 °C 34659.1 hPa Calm     74 % 0 mm 330.0 W/m2 FEW
11:13 -10.6 °C -13.1 °C 34659.1 hPa Calm     74 % 0 mm 339.0 W/m2 FEW
11:19 -10.5 °C -13 °C 34659.1 hPa Calm     74 % 0 mm 348.0 W/m2 FEW
11:23 -10.4 °C -13 °C 34645.6 hPa Calm     73 % 0 mm 355.0 W/m2 FEW
11:29 -10.2 °C -12.9 °C 34645.6 hPa Calm     73 % 0 mm 364.0 W/m2 FEW
11:34 -10.1 °C -12.9 °C 34645.6 hPa Calm     72 % 0 mm 371.0 W/m2 FEW
11:39 -10 °C -12.9 °C 34635.4 hPa Calm     71 % 0 mm 378.0 W/m2 FEW
11:44 -9.9 °C -12.7 °C 34635.4 hPa Calm     71 % 0 mm 385.0 W/m2 FEW
11:49 -9.7 °C -12.8 °C 34635.4 hPa Calm     69 % 0 mm 390.0 W/m2 FEW
11:54 -9.5 °C -12.8 °C 34625.2 hPa Calm     67 % 0 mm 397.0 W/m2 FEW
11:59 -9.3 °C -12.8 °C 34625.2 hPa Calm     66 % 0 mm 401.0 W/m2 FEW
12:04 -9.1 °C -12.9 °C 34625.2 hPa NNE 7.7 km/h 7.7 km/h 64 % 0 mm 410.0 W/m2 FEW
12:09 -9.1 °C -13 °C 34611.7 hPa NW 11.9 km/h 11.9 km/h 63 % 0 mm 415.0 W/m2 FEW
12:14 -9.1 °C -12.9 °C 34611.7 hPa NW 11.9 km/h 11.9 km/h 64 % 0 mm 420.0 W/m2 FEW
12:19 -9.1 °C -12.8 °C 34601.5 hPa NW 11.9 km/h 11.9 km/h 64 % 0 mm 424.0 W/m2 CLR
12:24 -9 °C -13.1 °C 34601.5 hPa Calm     62 % 0 mm 429.0 W/m2 CLR
12:29 -8.9 °C -12.8 °C 34591.4 hPa Calm     63 % 0 mm 436.0 W/m2 CLR
12:34 -8.8 °C -12.8 °C 34591.4 hPa Calm   1.6 km/h 62 % 0 mm 448.0 W/m2 CLR
12:39 -8.6 °C -13.1 °C 34591.4 hPa SW 12.9 km/h 12.9 km/h 59 % 0 mm 462.0 W/m2 CLR
12:44 -8.6 °C -12.9 °C 34591.4 hPa SSW 11.9 km/h 11.9 km/h 60 % 0 mm 480.0 W/m2 CLR
12:49 -8.4 °C -12.9 °C 34577.8 hPa SSW 15 km/h 15 km/h 59 % 0 mm 499.0 W/m2 CLR
12:54 -8.4 °C -12.9 °C 34567.7 hPa South 11.9 km/h 11.9 km/h 59 % 0 mm 448.0 W/m2 CLR
12:59 -8.3 °C -12.9 °C 34567.7 hPa SSW 10.3 km/h 10.3 km/h 58 % 0 mm 306.0 W/m2 CLR
13:04 -8.3 °C -12.9 °C 34567.7 hPa SW 9 km/h   58 % 0 mm 288.0 W/m2 FEW
13:09 -8.4 °C -13 °C 34554.1 hPa SW 11.9 km/h 11.9 km/h 58 % 0 mm 304.0 W/m2 SCT
13:14 -8.2 °C -12.9 °C 34554.1 hPa Calm     58 % 0 mm 401.0 W/m2 SCT
13:19 -8.2 °C -12.9 °C 34554.1 hPa SW 7.7 km/h 7.7 km/h 57 % 0 mm 499.0 W/m2 FEW
13:24 -8.1 °C -13.1 °C 34544 hPa WSW 9 km/h   56 % 0 mm 311.0 W/m2 FEW
13:29 -8 °C -12.8 °C 34544 hPa Calm     57 % 0 mm 441.0 W/m2 CLR
13:34 -7.8 °C -12.9 °C 34544 hPa Calm     55 % 0 mm 499.0 W/m2 CLR
13:39 -7.7 °C -12.9 °C 34533.8 hPa Calm     54 % 0 mm 480.0 W/m2 CLR
13:44 -7.5 °C -12.9 °C 34533.8 hPa Calm     53 % 0 mm 452.0 W/m2 CLR
13:49 -7.4 °C -12.9 °C 34533.8 hPa West 11.9 km/h 11.9 km/h 53 % 0 mm 367.0 W/m2 CLR
13:54 -7.7 °C -12.9 °C 34520.3 hPa Calm     54 % 0 mm 213.0 W/m2 SCT
13:59 -7.7 °C -13 °C 34520.3 hPa Calm     54 % 0 mm 274.0 W/m2 SCT
14:04 -7.8 °C -13 °C 34520.3 hPa Calm     54 % 0 mm 251.0 W/m2 SCT
14:09 -7.8 °C -13.1 °C 34510.1 hPa NNW 9 km/h 9 km/h 54 % 0 mm 192.0 W/m2 SCT
14:14 -7.8 °C -12.9 °C 34510.1 hPa Calm     55 % 0 mm 257.0 W/m2 BKN
14:19 -7.8 °C -12.9 °C 34510.1 hPa Calm     55 % 0 mm 292.0 W/m2 SCT
14:24 -7.7 °C -12.7 °C 34496.6 hPa Calm     56 % 0 mm 466.0 W/m2 FEW
14:29 -7.7 °C -12.8 °C 34496.6 hPa NNE 15 km/h 15 km/h 55 % 0 mm 302.0 W/m2 CLR
14:34 -7.8 °C -12.7 °C 34496.6 hPa NNE 10.3 km/h 10.3 km/h 56 % 0 mm 204.0 W/m2 FEW
14:39 -7.8 °C -12.7 °C 34496.6 hPa Calm     57 % 0 mm 250.0 W/m2 SCT
14:44 -7.9 °C -12.7 °C 34496.6 hPa NNE 6 km/h 6 km/h 57 % 0 mm 281.0 W/m2 SCT
14:49 -7.9 °C -12.7 °C 34496.6 hPa Calm     57 % 0 mm 199.0 W/m2 SCT
14:54 -7.9 °C -12.7 °C 34496.6 hPa Calm     57 % 0 mm 163.0 W/m2 SCT
14:59 -7.9 °C -12.7 °C 34496.6 hPa Calm     57 % 0 mm 165.0 W/m2 BKN
15:04 -8 °C -12.7 °C 34496.6 hPa NE 6 km/h   58 % 0 mm 167.0 W/m2 BKN
15:09 -8.1 °C -12.7 °C 34496.6 hPa NE 11.9 km/h 11.9 km/h 58 % 0 mm 158.0 W/m2 BKN
15:14 -8.2 °C -12.7 °C 34496.6 hPa NNE 15 km/h 15 km/h 59 % 0 mm 156.0 W/m2 BKN
15:19 -8.3 °C -12.6 °C 34496.6 hPa NNE 9 km/h 9 km/h 60 % 0 mm 163.0 W/m2 BKN
15:24 -8.4 °C -12.7 °C 34486.4 hPa Calm     60 % 0 mm 153.0 W/m2 SCT
15:29 -8.4 °C -12.7 °C 34486.4 hPa Calm     60 % 0 mm 146.0 W/m2 SCT
15:34 -8.4 °C -12.7 °C 34486.4 hPa Calm     60 % 0 mm 125.0 W/m2 SCT
15:39 -8.4 °C -12.6 °C 34486.4 hPa Calm     61 % 0 mm 111.0 W/m2 BKN
15:44 -8.4 °C -12.7 °C 34486.4 hPa Calm     60 % 0 mm 118.0 W/m2 BKN
15:49 -8.4 °C -12.6 °C 34486.4 hPa Calm     61 % 0 mm 172.0 W/m2 BKN
15:54 -8.3 °C -12.6 °C 34486.4 hPa Calm     60 % 0 mm 234.0 W/m2 SCT
15:59 -8.2 °C -12.7 °C 34486.4 hPa Calm     59 % 0 mm 165.0 W/m2 CLR
16:04 -8.2 °C -12.8 °C 34476.3 hPa Calm     58 % 0 mm 329.0 W/m2 CLR
16:09 -8.1 °C -12.7 °C 34476.3 hPa Calm     58 % 0 mm 241.0 W/m2 CLR
16:14 -8.1 °C -12.7 °C 34476.3 hPa Calm     58 % 0 mm 181.0 W/m2 CLR
16:19 -8 °C -12.6 °C 34476.3 hPa Calm     59 % 0 mm 202.0 W/m2 CLR
16:24 -8 °C -12.8 °C 34462.7 hPa Calm     57 % 0 mm 123.0 W/m2 CLR
16:29 -8 °C -12.7 °C 34462.7 hPa Calm     58 % 0 mm 107.0 W/m2 CLR
16:34 -8.1 °C -12.7 °C 34462.7 hPa Calm     58 % 0 mm 97.0 W/m2 CLR
16:39 -8.1 °C -12.7 °C 34462.7 hPa Calm     58 % 0 mm 90.0 W/m2 CLR
16:44 -8.2 °C -12.8 °C 34462.7 hPa Calm     58 % 0 mm 77.0 W/m2 CLR
16:50 -8.2 °C -12.9 °C 34462.7 hPa Calm     58 % 0 mm 67.0 W/m2 CLR
16:55 -8.3 °C -12.8 °C 34462.7 hPa Calm     59 % 0 mm 58.0 W/m2 CLR
17:00 -8.4 °C -12.9 °C 34462.7 hPa Calm     59 % 0 mm 47.0 W/m2 CLR
17:05 -8.5 °C -12.9 °C 34452.6 hPa Calm     59 % 0 mm 40.0 W/m2 CLR
17:10 -8.6 °C -12.9 °C 34462.7 hPa Calm     60 % 0 mm 37.0 W/m2 OVC
17:15 -8.7 °C -12.9 °C 34452.6 hPa Calm     61 % 0 mm 33.0 W/m2 OVC
17:20 -8.8 °C -12.9 °C 34452.6 hPa Calm     62 % 0 mm 30.0 W/m2 OVC
17:25 -8.9 °C -12.9 °C 34452.6 hPa Calm     63 % 0 mm 26.0 W/m2 OVC
17:30 -9 °C -12.7 °C 34452.6 hPa Calm     65 % 0 mm 23.0 W/m2 OVC
17:35 -9.2 °C -12.8 °C 34462.7 hPa Calm     65 % 0 mm 18.0 W/m2 OVC
17:40 -9.3 °C -12.8 °C 34462.7 hPa Calm     66 % 0 mm 12.0 W/m2 OVC
17:45 -9.4 °C -12.8 °C 34462.7 hPa Calm     67 % 0 mm 9.0 W/m2 OVC
17:50 -9.6 °C -12.8 °C 34452.6 hPa Calm     68 % 0 mm 0.0 W/m2 OVC
17:55 -9.7 °C -12.8 °C 34462.7 hPa Calm     69 % 0 mm 0.0 W/m2 CLR
18:00 -9.9 °C -12.9 °C 34462.7 hPa Calm     70 % 0 mm 0.0 W/m2 CLR
18:05 -10.1 °C -12.8 °C 34462.7 hPa Calm     72 % 0 mm 0.0 W/m2 CLR
18:10 -10.2 °C -12.9 °C 34462.7 hPa Calm     72 % 0 mm 0.0 W/m2 CLR
18:15 -10.3 °C -12.9 °C 34462.7 hPa Calm     73 % 0 mm 0.0 W/m2 CLR
18:20 -10.7 °C -13.1 °C 34452.6 hPa Calm     75 % 0 mm 0.0 W/m2 CLR
18:25 -10.9 °C -13.2 °C 34462.7 hPa Calm     76 % 0 mm 0.0 W/m2 CLR
18:30 -11.1 °C -13.2 °C 34452.6 hPa Calm     78 % 0 mm 0.0 W/m2 CLR
18:35 -11.3 °C -13.3 °C 34452.6 hPa Calm     78 % 0 mm 0.0 W/m2 CLR
18:40 -11.3 °C -13.2 °C 34452.6 hPa Calm     80 % 0 mm 0.0 W/m2 CLR
18:45 -11.3 °C -13.2 °C 34452.6 hPa Calm     80 % 0 mm 0.0 W/m2 CLR
18:50 -11.3 °C -13.2 °C 34452.6 hPa Calm     79 % 0 mm 0.0 W/m2 CLR
18:56 -11.6 °C -13.6 °C 34452.6 hPa Calm     78 % 0 mm 0.0 W/m2 CLR
19:01 -11.8 °C -13.5 °C 34452.6 hPa Calm     81 % 0 mm 0.0 W/m2 CLR
19:06 -11.9 °C -13.6 °C 34452.6 hPa Calm     82 % 0 mm 0.0 W/m2 CLR
19:11 -12.1 °C -13.6 °C 34462.7 hPa Calm     83 % 0 mm 0.0 W/m2 CLR
19:16 -12.1 °C -13.7 °C 34462.7 hPa Calm     83 % 0 mm 0.0 W/m2 CLR
19:21 -12.2 °C -13.7 °C 34452.6 hPa Calm     83 % 0 mm 0.0 W/m2 CLR
19:26 -12.3 °C -13.7 °C 34462.7 hPa Calm     84 % 0 mm 0.0 W/m2 CLR
19:31 -12.3 °C -13.7 °C 34462.7 hPa Calm     84 % 0 mm 0.0 W/m2 CLR
19:36 -12.4 °C -13.8 °C 34462.7 hPa Calm     84 % 0 mm 0.0 W/m2 CLR
19:41 -12.4 °C -13.8 °C 34462.7 hPa SW 7.7 km/h 7.7 km/h 84 % 0 mm 0.0 W/m2 CLR
19:46 -12.4 °C -13.8 °C 34462.7 hPa Calm     84 % 0 mm 0.0 W/m2 CLR
19:51 -12.5 °C -13.9 °C 34462.7 hPa Calm     84 % 0 mm 0.0 W/m2 CLR
19:56 -12.6 °C -13.9 °C 34462.7 hPa WSW 11.9 km/h 11.9 km/h 85 % 0 mm 0.0 W/m2 CLR
20:01 -12.7 °C -14 °C 34462.7 hPa WSW 9 km/h 9 km/h 85 % 0 mm 0.0 W/m2 CLR
20:06 -12.7 °C -14 °C 34462.7 hPa Calm     85 % 0 mm 0.0 W/m2 CLR
20:11 -12.7 °C -14 °C 34462.7 hPa Calm     85 % 0 mm 0.0 W/m2 CLR
20:16 -12.7 °C -14 °C 34452.6 hPa Calm     85 % 0 mm 0.0 W/m2 CLR
20:21 -12.8 °C -14.1 °C 34452.6 hPa Calm     85 % 0 mm 0.0 W/m2 CLR
20:26 -12.8 °C -14.1 °C 34452.6 hPa Calm     86 % 0 mm 0.0 W/m2 CLR
20:31 -12.8 °C -14.1 °C 34452.6 hPa Calm     86 % 0 mm 0.0 W/m2 CLR
20:36 -12.8 °C -14.1 °C 34452.6 hPa Calm     86 % 0 mm 0.0 W/m2 CLR
20:41 -12.8 °C -14.1 °C 34452.6 hPa SW 15 km/h 15 km/h 86 % 0 mm 0.0 W/m2 CLR
20:46 -12.7 °C -14.1 °C 34442.4 hPa WSW 11.9 km/h 11.9 km/h 85 % 0 mm 0.0 W/m2 CLR
20:51 -12.8 °C -14.1 °C 34452.6 hPa Calm     85 % 0 mm 0.0 W/m2 CLR
20:56 -12.7 °C -14.1 °C 34452.6 hPa Calm     85 % 0 mm 0.0 W/m2 CLR
21:01 -12.8 °C -14.2 °C 34452.6 hPa Calm     84 % 0 mm 0.0 W/m2 CLR
21:06 -12.8 °C -14.1 °C 34452.6 hPa Calm     85 % 0 mm 0.0 W/m2 CLR
21:11 -12.7 °C -14.1 °C 34452.6 hPa Calm     85 % 0 mm 0.0 W/m2 CLR
21:16 -12.7 °C -14.2 °C 34452.6 hPa Calm     84 % 0 mm 0.0 W/m2 CLR
21:21 -12.6 °C -14 °C 34452.6 hPa West 3.1 km/h 3.1 km/h 84 % 0 mm 0.0 W/m2 CLR
21:26 -12.2 °C -13.8 °C 34452.6 hPa West 20.9 km/h 20.9 km/h 82 % 0 mm 0.0 W/m2 CLR
21:31 -11.2 °C -13.5 °C 34452.6 hPa West 26.9 km/h 26.9 km/h 75 % 0 mm 0.0 W/m2 CLR
21:36 -10.7 °C -13.5 °C 34452.6 hPa WNW 26.9 km/h 26.9 km/h 71 % 0 mm 0.0 W/m2 CLR
21:41 -10.6 °C -13.6 °C 34462.7 hPa WNW 17.9 km/h 17.9 km/h 70 % 0 mm 0.0 W/m2 CLR
21:46 -10.6 °C -13.6 °C 34462.7 hPa WNW 17.9 km/h 17.9 km/h 70 % 0 mm 0.0 W/m2 CLR
21:51 -10.6 °C -13.6 °C 34462.7 hPa WNW 23.8 km/h 23.8 km/h 70 % 0 mm 0.0 W/m2 CLR
21:56 -10.6 °C -13.4 °C 34462.7 hPa WNW 17.9 km/h 17.9 km/h 71 % 0 mm 0.0 W/m2 CLR
22:01 -10.6 °C -13.4 °C 34476.3 hPa WNW 23.8 km/h 23.8 km/h 71 % 0 mm 0.0 W/m2 CLR
22:06 -10.6 °C -13.4 °C 34476.3 hPa WNW 20.9 km/h 20.9 km/h 71 % 0 mm 0.0 W/m2 CLR
22:11 -10.5 °C -13.4 °C 34476.3 hPa West 17.9 km/h 17.9 km/h 71 % 0 mm 0.0 W/m2 CLR
22:16 -10.4 °C -13.4 °C 34476.3 hPa West 26.9 km/h 26.9 km/h 70 % 0 mm 0.0 W/m2 CLR
22:21 -10.4 °C -13.4 °C 34476.3 hPa WNW 26.9 km/h 26.9 km/h 70 % 0 mm 0.0 W/m2 CLR
22:26 -10.5 °C -13.4 °C 34486.4 hPa WNW 17.9 km/h 17.9 km/h 71 % 0 mm 0.0 W/m2 CLR
22:31 -10.7 °C -13.4 °C 34486.4 hPa NW 32.8 km/h 32.8 km/h 72 % 0 mm 0.0 W/m2 CLR
22:36 -10.7 °C -13.5 °C 34486.4 hPa WNW 12.9 km/h 12.9 km/h 72 % 0 mm 0.0 W/m2 CLR
22:41 -10.8 °C -13.4 °C 34486.4 hPa WNW 23.3 km/h 23.3 km/h 73 % 0 mm 0.0 W/m2 CLR
22:46 -10.9 °C -13.5 °C 34476.3 hPa WNW 15 km/h 15 km/h 73 % 0 mm 0.0 W/m2 CLR
22:51 -10.9 °C -13.4 °C 34476.3 hPa WNW 29.8 km/h 29.8 km/h 74 % 0 mm 0.0 W/m2 CLR
22:56 -10.9 °C -13.4 °C 34476.3 hPa WNW 15 km/h 15 km/h 74 % 0 mm 0.0 W/m2 CLR
23:01 -10.9 °C -13.4 °C 34476.3 hPa West 20.9 km/h 20.9 km/h 74 % 0 mm 0.0 W/m2 CLR
23:06 -11.1 °C -13.6 °C 34476.3 hPa West 23.3 km/h 23.3 km/h 74 % 0 mm 0.0 W/m2 CLR
23:11 -11 °C -13.4 °C 34476.3 hPa West 29.8 km/h 29.8 km/h 75 % 0 mm 0.0 W/m2 CLR
23:16 -11 °C -13.5 °C 34476.3 hPa West 26.9 km/h 26.9 km/h 74 % 0 mm 0.0 W/m2 CLR
23:21 -11 °C -13.5 °C 34476.3 hPa West 23.8 km/h 23.8 km/h 74 % 0 mm 0.0 W/m2 CLR
23:26 -11 °C -13.5 °C 34462.7 hPa West 29.8 km/h 29.8 km/h 74 % 0 mm 0.0 W/m2 CLR
23:31 -11.1 °C -13.6 °C 34462.7 hPa West 26.9 km/h 26.9 km/h 74 % 0 mm 0.0 W/m2 CLR
23:36 -11 °C -13.5 °C 34476.3 hPa West 23.8 km/h 23.8 km/h 74 % 0 mm 0.0 W/m2 CLR
23:42 -11.1 °C -13.6 °C 34476.3 hPa West 20.8 km/h 20.8 km/h 74 % 0 mm 0.0 W/m2 CLR
23:47 -11 °C -13.5 °C 34462.7 hPa West 31.1 km/h 31.1 km/h 74 % 0 mm 0.0 W/m2 CLR
23:52 -10.9 °C -13.5 °C 34462.7 hPa WNW 35.7 km/h 35.7 km/h 73 % 0 mm 0.0 W/m2 CLR
23:57 -10.9 °C -13.5 °C 34462.7 hPa West 35.7 km/h 35.7 km/h 73 % 0 mm 0.0 W/m2 CLR
Lo Temps de Massalio
Compliments of Weather Underground - 1.25 mb